Time;durP1;ratioP1;P1;durP2;ratioP2;P2;SDS_P1;SDS_P2;PMS_P1;PMS_P2;Temp;Humidity;BMP_temperature;BMP_pressure;BME280_temperature;BME280_humidity;BME280_pressure;Samples;Min_cycle;Max_cycle;Signal;HPM_P1;HPM_P2
2022/10/01 00:03:06;;;;;;;26.70;14.50;;;;;;;7.33;92.90;99572.67;105177;1274;69761;-74
2022/10/01 00:06:03;;;;;;;26.80;15.90;;;;;;;7.30;92.82;99569.20;104934;1273;74571;-72
2022/10/01 00:08:52;;;;;;;25.80;15.90;;;;;;;7.25;93.24;99570.75;104918;1274;59790;-73
2022/10/01 00:11:40;;;;;;;29.40;16.30;;;;;;;7.22;93.35;99574.89;104860;1274;61641;-72
2022/10/01 00:14:28;;;;;;;28.20;15.90;;;;;;;7.18;93.54;99574.81;104938;1274;73683;-73
2022/10/01 00:17:16;;;;;;;29.40;16.50;;;;;;;7.14;93.91;99576.66;104907;1274;69619;-72
2022/10/01 00:20:06;;;;;;;26.40;14.60;;;;;;;7.10;94.37;99572.17;104928;1274;74558;-72
2022/10/01 00:23:01;;;;;;;25.90;16.10;;;;;;;7.06;94.93;99574.45;105014;1272;59783;-72
2022/10/01 00:25:51;;;;;;;26.80;15.20;;;;;;;7.02;94.48;99568.91;105078;1274;61011;-75
2022/10/01 00:28:41;;;;;;;29.90;15.60;;;;;;;6.96;94.91;99567.52;105122;1274;75383;-76
2022/10/01 00:31:29;;;;;;;28.80;15.90;;;;;;;6.94;95.32;99565.75;105353;1274;66771;-75
2022/10/01 00:34:17;;;;;;;28.70;16.50;;;;;;;6.91;95.59;99558.17;104821;1274;72937;-76
2022/10/01 00:37:08;;;;;;;27.90;15.60;;;;;;;6.90;95.81;99555.24;104642;1275;61346;-76
2022/10/01 00:39:56;;;;;;;24.60;13.90;;;;;;;6.91;96.18;99549.56;105097;1274;60454;-77
2022/10/01 00:42:44;;;;;;;27.40;15.60;;;;;;;6.91;95.69;99547.05;105078;1274;74167;-76
2022/10/01 00:45:32;;;;;;;30.50;17.40;;;;;;;6.92;95.71;99547.58;105134;1275;67398;-77
2022/10/01 00:48:23;;;;;;;28.10;15.50;;;;;;;6.91;96.17;99550.60;104909;1274;72946;-77
2022/10/01 00:51:12;;;;;;;26.00;14.70;;;;;;;6.90;95.81;99549.07;104773;1274;59685;-77
2022/10/01 00:54:09;;;;;;;26.70;15.30;;;;;;;6.90;96.36;99549.11;104822;1275;64091;-72
2022/10/01 00:57:00;;;;;;;27.80;16.20;;;;;;;6.90;96.25;99549.67;104909;1274;71711;-74
2022/10/01 00:59:50;;;;;;;31.30;18.50;;;;;;;6.87;96.60;99545.98;104964;1274;68012;-74
2022/10/01 01:02:40;;;;;;;31.70;18.30;;;;;;;6.85;97.23;99545.36;104978;1274;74157;-73
2022/10/01 01:05:28;;;;;;;28.90;16.60;;;;;;;6.82;96.69;99548.09;105046;1274;60074;-74
2022/10/01 01:08:17;;;;;;;34.70;18.40;;;;;;;6.79;96.94;99546.84;104994;1274;61599;-73
2022/10/01 01:11:21;;;;;;;32.70;18.00;;;;;;;6.77;96.37;99546.34;104924;1274;73838;-74
2022/10/01 01:14:43;;;;;;;29.80;16.60;;;;;;;6.74;96.98;99542.09;105046;1274;187871;-74
2022/10/01 01:17:40;;;;;;;31.80;18.00;;;;;;;6.72;97.32;99540.31;105151;1274;71431;-74
2022/10/01 01:20:58;;;;;;;27.40;15.70;;;;;;;6.69;97.25;99535.95;104967;1274;59772;-73
2022/10/01 01:24:29;;;;;;;28.50;16.20;;;;;;;6.64;97.52;99536.95;105248;1274;61605;-74
2022/10/01 01:27:42;;;;;;;30.00;18.10;;;;;;;6.60;98.06;99539.73;105127;1274;73096;-73
2022/10/01 01:30:31;;;;;;;32.80;18.20;;;;;;;6.56;98.17;99540.54;105158;1274;69735;-73
2022/10/01 01:33:25;;;;;;;32.10;18.20;;;;;;;6.53;98.32;99540.03;104992;1274;71527;-74
2022/10/01 01:36:24;;;;;;;31.00;18.10;;;;;;;6.50;98.70;99539.91;105183;1274;59790;-73
2022/10/01 01:39:15;;;;;;;32.50;18.90;;;;;;;6.48;99.20;99536.86;104946;1274;59576;-74
2022/10/01 01:42:13;;;;;;;29.40;17.00;;;;;;;6.45;98.92;99537.89;104934;1274;73291;-73
2022/10/01 01:45:07;;;;;;;29.10;15.90;;;;;;;6.43;98.40;99535.80;104814;1273;67807;-74
2022/10/01 01:47:59;;;;;;;32.10;16.60;;;;;;;6.40;98.95;99532.15;105113;1274;73996;-73
2022/10/01 01:50:56;;;;;;;33.30;18.10;;;;;;;6.35;99.71;99528.27;105078;1274;61177;-72
2022/10/01 01:53:44;;;;;;;29.20;17.50;;;;;;;6.31;99.92;99528.82;104901;1274;60273;-73
2022/10/01 01:56:33;;;;;;;30.90;16.50;;;;;;;6.29;100.00;99530.39;104946;1274;73248;-72
2022/10/01 01:59:21;;;;;;;33.50;19.10;;;;;;;6.26;100.00;99526.56;105144;1274;68053;-73
2022/10/01 02:02:18;;;;;;;31.90;18.90;;;;;;;6.25;99.99;99523.65;104917;1272;73410;-72
2022/10/01 02:05:12;;;;;;;31.60;18.30;;;;;;;6.23;100.00;99519.88;105213;1274;60463;-73
2022/10/01 02:08:11;;;;;;;31.80;18.40;;;;;;;6.22;100.00;99517.33;104894;1274;60714;-75
2022/10/01 02:11:37;;;;;;;32.40;19.00;;;;;;;6.21;100.00;99514.94;105002;1273;71460;-74
2022/10/01 02:14:57;;;;;;;30.50;18.90;;;;;;;6.19;100.00;99517.70;105311;1274;66805;-74
2022/10/01 02:18:47;;;;;;;32.60;19.70;;;;;;;6.17;100.00;99521.00;105082;1274;73002;-74
2022/10/01 02:22:03;;;;;;;29.40;15.90;;;;;;;6.15;100.00;99520.06;104384;1277;59865;-73
2022/10/01 02:24:58;;;;;;;29.70;17.80;;;;;;;6.14;100.00;99515.52;104412;1278;62410;-74
2022/10/01 02:28:02;;;;;;;33.50;20.60;;;;;;;6.13;100.00;99509.59;104655;1277;73396;-73
2022/10/01 02:30:54;;;;;;;30.30;17.60;;;;;;;6.13;100.00;99508.59;104341;1281;66200;-74
2022/10/01 02:33:45;;;;;;;33.40;18.80;;;;;;;6.13;100.00;99512.30;104720;1278;74213;-73
2022/10/01 02:36:36;;;;;;;30.90;17.50;;;;;;;6.13;100.00;99506.30;104487;1281;59876;-74
2022/10/01 02:39:29;;;;;;;31.80;20.00;;;;;;;6.12;100.00;99500.90;104649;1281;61704;-74
2022/10/01 02:42:20;;;;;;;28.90;15.80;;;;;;;6.11;100.00;99499.73;104548;1280;71742;-75
2022/10/01 02:45:10;;;;;;;34.50;18.00;;;;;;;6.09;100.00;99503.73;104305;1278;68107;-75
2022/10/01 02:48:07;;;;;;;30.60;18.00;;;;;;;6.08;100.00;99500.99;104296;1281;73457;-75
2022/10/01 02:51:58;;;;;;;32.00;18.40;;;;;;;6.06;100.00;99500.79;104574;1278;59785;-76
2022/10/01 02:55:23;;;;;;;34.00;18.80;;;;;;;6.02;100.00;99500.85;104045;1287;60747;-74
2022/10/01 02:58:11;;;;;;;34.50;18.10;;;;;;;6.01;100.00;99499.71;104033;1281;73047;-73
2022/10/01 03:00:59;;;;;;;30.70;16.90;;;;;;;5.99;100.00;99495.66;104305;1280;67931;-73
2022/10/01 03:03:47;;;;;;;31.00;18.10;;;;;;;5.97;100.00;99494.34;104387;1281;74431;-74
2022/10/01 03:06:35;;;;;;;30.70;17.40;;;;;;;5.95;100.00;99497.09;104564;1280;59773;-73
2022/10/01 03:09:23;;;;;;;31.80;18.30;;;;;;;5.94;100.00;99489.39;104853;1281;60220;-74
2022/10/01 03:12:11;;;;;;;33.70;18.50;;;;;;;5.92;100.00;99484.73;104532;1281;74754;-73
2022/10/01 03:14:58;;;;;;;32.30;18.40;;;;;;;5.92;100.00;99481.09;104375;1280;68851;-72
2022/10/01 03:17:51;;;;;;;31.90;17.80;;;;;;;5.91;100.00;99481.69;104570;1281;71556;-73
2022/10/01 03:20:39;;;;;;;32.20;17.20;;;;;;;5.89;100.00;99482.70;104378;1281;61060;-73
2022/10/01 03:23:28;;;;;;;32.00;18.40;;;;;;;5.86;100.00;99476.90;104587;1280;60058;-73
2022/10/01 03:26:15;;;;;;;33.40;19.10;;;;;;;5.84;100.00;99476.86;104782;1279;73210;-72
2022/10/01 03:29:05;;;;;;;31.60;18.70;;;;;;;5.82;100.00;99477.02;104325;1281;68246;-72
2022/10/01 03:31:53;;;;;;;33.80;19.40;;;;;;;5.80;100.00;99474.45;105037;1274;72891;-73
2022/10/01 03:34:41;;;;;;;36.80;19.50;;;;;;;5.80;100.00;99473.23;104862;1274;61296;-74
2022/10/01 03:37:29;;;;;;;32.40;18.40;;;;;;;5.78;100.00;99468.95;104834;1274;60365;-73
2022/10/01 03:40:16;;;;;;;30.70;17.80;;;;;;;5.78;100.00;99469.52;105068;1274;73254;-73
2022/10/01 03:43:04;;;;;;;37.30;20.60;;;;;;;5.78;100.00;99468.30;105066;1274;67174;-73
2022/10/01 03:45:52;;;;;;;31.20;17.50;;;;;;;5.78;100.00;99467.60;105100;1274;71857;-75
2022/10/01 03:48:40;;;;;;;31.10;17.60;;;;;;;5.77;100.00;99466.42;104807;1274;59917;-74
2022/10/01 03:51:29;;;;;;;34.20;19.80;;;;;;;5.77;100.00;99466.05;105123;1274;60988;-73
2022/10/01 03:54:19;;;;;;;32.90;18.40;;;;;;;5.76;100.00;99465.08;105379;1274;72006;-72
2022/10/01 03:57:06;;;;;;;33.50;19.80;;;;;;;5.74;100.00;99464.32;104984;1274;69398;-73
2022/10/01 03:59:57;;;;;;;38.10;20.50;;;;;;;5.72;100.00;99462.15;105083;1274;72750;-73
2022/10/01 04:02:45;;;;;;;38.40;22.20;;;;;;;5.71;100.00;99460.16;104906;1274;61727;-75
2022/10/01 04:05:33;;;;;;;37.70;20.50;;;;;;;5.70;100.00;99460.88;104949;1274;62075;-77
2022/10/01 04:08:21;;;;;;;32.90;19.90;;;;;;;5.69;100.00;99458.66;105222;1274;74803;-75
2022/10/01 04:11:11;;;;;;;35.10;20.60;;;;;;;5.69;100.00;99457.11;104949;1274;66809;-77
2022/10/01 04:13:59;;;;;;;31.30;17.60;;;;;;;5.68;100.00;99451.70;104996;1272;73251;-77
2022/10/01 04:16:49;;;;;;;31.80;18.10;;;;;;;5.68;100.00;99454.19;105206;1274;59662;-77
2022/10/01 04:19:37;;;;;;;32.40;18.30;;;;;;;5.68;100.00;99454.55;104954;1274;60578;-78
2022/10/01 04:22:25;;;;;;;39.00;21.30;;;;;;;5.67;100.00;99451.41;104829;1273;72023;-75
2022/10/01 04:25:14;;;;;;;33.50;19.60;;;;;;;5.67;100.00;99450.70;104990;1274;66798;-76
2022/10/01 04:28:06;;;;;;;33.30;17.70;;;;;;;5.68;100.00;99453.10;105185;1274;72872;-75
2022/10/01 04:31:23;;;;;;;33.50;18.90;;;;;;;5.68;100.00;99452.77;104931;1274;60334;-74
2022/10/01 04:34:02;;;;;;;35.00;19.40;;;;;;;5.68;100.00;99455.59;104904;1274;59596;-75
2022/10/01 04:36:50;;;;;;;36.50;19.80;;;;;;;5.69;100.00;99453.60;105004;1274;74794;-74
2022/10/01 04:39:38;;;;;;;36.20;22.10;;;;;;;5.71;100.00;99456.74;105247;1274;70244;-75
2022/10/01 04:42:26;;;;;;;34.10;18.80;;;;;;;5.73;100.00;99451.88;105008;1274;74423;-74
2022/10/01 04:45:14;;;;;;;33.10;19.20;;;;;;;5.74;100.00;99452.17;104942;1274;60280;-74
2022/10/01 04:48:02;;;;;;;33.20;19.40;;;;;;;5.76;100.00;99454.67;105039;1274;62082;-75
2022/10/01 04:50:50;;;;;;;33.60;18.80;;;;;;;5.78;100.00;99452.58;104932;1274;72102;-76
2022/10/01 04:53:38;;;;;;;37.80;20.80;;;;;;;5.80;100.00;99454.42;105036;1274;69085;-75
2022/10/01 04:56:26;;;;;;;33.40;20.20;;;;;;;5.83;100.00;99460.77;105009;1274;74287;-76
2022/10/01 04:59:14;;;;;;;33.90;18.70;;;;;;;5.84;100.00;99458.58;105193;1274;59765;-74
2022/10/01 05:02:03;;;;;;;32.90;18.30;;;;;;;5.84;100.00;99459.77;105055;1274;61121;-75
2022/10/01 05:04:50;;;;;;;34.40;20.60;;;;;;;5.87;100.00;99458.55;104963;1274;74973;-75
2022/10/01 05:07:39;;;;;;;29.80;16.80;;;;;;;5.88;100.00;99459.00;104950;1274;68695;-75
2022/10/01 05:10:27;;;;;;;30.10;16.90;;;;;;;5.89;100.00;99461.52;104993;1274;71145;-76
2022/10/01 05:13:15;;;;;;;33.60;18.70;;;;;;;5.92;100.00;99463.66;104969;1274;59631;-74
2022/10/01 05:16:03;;;;;;;32.90;18.90;;;;;;;5.95;100.00;99466.61;105022;1274;62168;-74
2022/10/01 05:18:53;;;;;;;34.90;19.90;;;;;;;5.97;100.00;99466.66;104941;1274;73236;-75
2022/10/01 05:21:42;;;;;;;32.10;18.40;;;;;;;6.00;100.00;99464.92;104997;1273;69442;-77
2022/10/01 05:24:29;;;;;;;34.60;19.60;;;;;;;6.04;100.00;99466.05;105081;1273;72822;-77
2022/10/01 05:27:18;;;;;;;34.50;20.40;;;;;;;6.08;100.00;99462.75;105043;1274;61246;-76
2022/10/01 05:30:09;;;;;;;33.20;18.60;;;;;;;6.13;100.00;99457.32;105472;1267;61536;-72
2022/10/01 05:33:00;;;;;;;34.10;20.30;;;;;;;6.19;100.00;99462.95;105142;1267;74765;-74
2022/10/01 05:35:49;;;;;;;35.80;20.80;;;;;;;6.25;100.00;99463.73;105191;1267;66675;-74
2022/10/01 05:38:37;;;;;;;32.40;19.40;;;;;;;6.32;100.00;99460.94;105187;1267;72475;-75
2022/10/01 05:41:25;;;;;;;33.60;18.90;;;;;;;6.39;100.00;99460.31;104759;1267;1003762;-76
2022/10/01 05:44:13;;;;;;;33.10;18.50;;;;;;;6.44;100.00;99452.70;105477;1267;59554;-77
2022/10/01 05:47:02;;;;;;;35.50;21.20;;;;;;;6.52;100.00;99447.40;105153;1267;73280;-76
2022/10/01 05:49:50;;;;;;;32.10;19.00;;;;;;;6.59;100.00;99449.34;105199;1267;68791;-75
2022/10/01 05:52:37;;;;;;;32.70;17.30;;;;;;;6.67;100.00;99446.52;105167;1267;73299;-75
2022/10/01 05:55:36;;;;;;;38.20;21.30;;;;;;;6.74;100.00;99444.98;105304;1267;60761;-75
2022/10/01 05:58:23;;;;;;;33.30;20.00;;;;;;;6.81;99.90;99445.31;105395;1267;60638;-76
2022/10/01 06:01:12;;;;;;;31.40;18.20;;;;;;;6.90;99.97;99434.48;105273;1267;73166;-76
2022/10/01 06:04:00;;;;;;;32.80;17.50;;;;;;;6.99;99.92;99436.79;105232;1267;68445;-76
2022/10/01 06:06:48;;;;;;;33.80;19.40;;;;;;;7.08;99.32;99433.73;105350;1268;72648;-75
2022/10/01 06:09:36;;;;;;;30.60;18.40;;;;;;;7.16;99.11;99435.21;105133;1267;59663;-76
2022/10/01 06:12:27;;;;;;;37.40;20.40;;;;;;;7.24;98.60;99427.06;105201;1268;60861;-76
2022/10/01 06:15:20;;;;;;;50.20;21.70;;;;;;;7.34;98.40;99426.09;105252;1268;74737;-76
2022/10/01 06:18:10;;;;;;;85.10;25.00;;;;;;;7.44;97.78;99420.08;105400;1267;66296;-75
2022/10/01 06:20:58;;;;;;;67.80;23.40;;;;;;;7.53;97.56;99419.79;105338;1268;74468;-78
2022/10/01 06:23:48;;;;;;;61.10;22.40;;;;;;;7.60;96.76;99421.88;105174;1268;60738;-74
2022/10/01 06:26:39;;;;;;;51.20;21.30;;;;;;;7.67;96.32;99422.62;105462;1268;60387;-74
2022/10/01 06:29:27;;;;;;;42.90;20.50;;;;;;;7.75;96.18;99420.45;105233;1268;74107;-76
2022/10/01 06:32:18;;;;;;;36.40;17.60;;;;;;;7.81;95.92;99413.24;105431;1270;68585;-76
2022/10/01 06:35:06;;;;;;;31.20;19.50;;;;;;;7.92;95.62;99413.19;105143;1270;72285;-76
2022/10/01 06:37:54;;;;;;;35.10;19.40;;;;;;;8.04;95.39;99409.56;105142;1270;60269;-75
2022/10/01 06:40:43;;;;;;;35.70;20.30;;;;;;;8.19;95.04;99409.79;105307;1270;61848;-76
2022/10/01 06:43:32;;;;;;;32.60;17.80;;;;;;;8.40;94.41;99408.35;105395;1270;73481;-76
2022/10/01 06:46:20;;;;;;;30.40;17.20;;;;;;;8.70;93.00;99403.90;105270;1270;70091;-76
2022/10/01 06:49:08;;;;;;;30.30;18.60;;;;;;;9.58;90.36;99401.06;105195;1270;73274;-75
2022/10/01 06:55:03;;;;;;;28.00;17.10;;;;;;;13.08;74.33;99379.66;105481;1270;61712;-74
2022/10/01 06:57:57;;;;;;;31.10;17.10;;;;;;;14.44;70.07;99371.04;105143;1271;73692;-75
2022/10/01 07:00:46;;;;;;;24.90;15.90;;;;;;;15.78;64.89;99365.88;105243;1270;69785;-75
2022/10/01 07:03:34;;;;;;;48.60;37.50;;;;;;;16.86;60.32;99363.59;105185;1270;73158;-73
2022/10/01 07:06:22;;;;;;;25.00;17.60;;;;;;;17.70;54.51;99354.23;105171;1270;59573;-74
2022/10/01 07:09:10;;;;;;;22.80;15.20;;;;;;;18.53;53.65;99354.38;105161;1270;60429;-74
2022/10/01 07:11:58;;;;;;;32.90;23.40;;;;;;;19.21;50.06;99351.67;105255;1270;73424;-76
2022/10/01 07:14:47;;;;;;;19.10;12.80;;;;;;;19.97;49.07;99348.73;105238;1270;67039;-74
2022/10/01 07:17:43;;;;;;;17.40;11.80;;;;;;;20.58;46.68;99349.52;105408;1270;74112;-76
2022/10/01 07:20:34;;;;;;;17.10;11.60;;;;;;;20.84;44.30;99349.55;105414;1270;59631;-77
2022/10/01 07:23:23;;;;;;;15.40;10.60;;;;;;;21.16;43.02;99343.41;105260;1270;60991;-76
2022/10/01 07:26:11;;;;;;;16.80;9.90;;;;;;;21.17;42.08;99341.21;105075;1268;72202;-76
2022/10/01 07:29:00;;;;;;;15.50;10.50;;;;;;;21.26;41.59;99333.55;105130;1270;68179;-75
2022/10/01 07:31:49;;;;;;;14.60;9.80;;;;;;;21.33;41.31;99331.27;105406;1267;74480;-75
2022/10/01 07:34:39;;;;;;;13.80;8.00;;;;;;;21.28;41.01;99324.44;105232;1267;59538;-74
2022/10/01 07:37:27;;;;;;;14.40;8.80;;;;;;;21.31;40.24;99323.11;105342;1267;60326;-75
2022/10/01 07:40:17;;;;;;;12.90;8.60;;;;;;;21.39;40.00;99324.49;105586;1267;75152;-75
2022/10/01 07:43:05;;;;;;;13.10;8.40;;;;;;;21.80;39.59;99314.23;105300;1266;68168;-75
2022/10/01 07:45:56;;;;;;;13.50;8.80;;;;;;;22.32;38.74;99305.22;105272;1268;72859;-76
2022/10/01 07:48:48;;;;;;;12.90;9.10;;;;;;;23.01;38.58;99301.59;105479;1267;59776;-73
2022/10/01 07:51:36;;;;;;;12.90;9.50;;;;;;;23.48;36.83;99298.48;105265;1267;59643;-76
2022/10/01 07:54:24;;;;;;;13.80;8.60;;;;;;;23.84;35.87;99294.52;105266;1267;73339;-75
2022/10/01 07:57:14;;;;;;;12.40;8.40;;;;;;;24.31;35.54;99290.77;105299;1267;68424;-75
2022/10/01 08:00:02;;;;;;;16.60;8.80;;;;;;;24.67;34.39;99289.73;105169;1267;71726;-75
2022/10/01 08:02:59;;;;;;;13.30;8.80;;;;;;;24.89;34.09;99288.52;105579;1267;59839;-76
2022/10/01 08:05:48;;;;;;;12.40;7.70;;;;;;;25.41;32.97;99278.09;105418;1267;61828;-77
2022/10/01 08:08:36;;;;;;;10.60;5.90;;;;;;;25.78;31.49;99276.21;105413;1267;72354;-76
2022/10/01 08:11:24;;;;;;;10.00;5.90;;;;;;;25.51;30.63;99281.67;105421;1267;67909;-76
2022/10/01 08:14:12;;;;;;;9.90;6.00;;;;;;;24.98;30.83;99280.98;105157;1267;72950;-75
2022/10/01 08:17:02;;;;;;;9.90;5.50;;;;;;;24.99;31.13;99275.95;105163;1267;59782;-78
2022/10/01 08:19:50;;;;;;;10.50;6.00;;;;;;;25.44;31.00;99262.63;105252;1267;61708;-78
2022/10/01 08:22:41;;;;;;;10.60;6.00;;;;;;;25.85;30.68;99259.02;105413;1267;73693;-76
2022/10/01 08:25:32;;;;;;;9.80;5.90;;;;;;;26.34;29.92;99254.78;105245;1268;69937;-75
2022/10/01 08:28:28;;;;;;;9.90;5.30;;;;;;;26.18;29.28;99253.67;105270;1267;74159;-76
2022/10/01 08:31:17;;;;;;;9.50;4.40;;;;;;;26.03;29.03;99250.92;105409;1270;59623;-76
2022/10/01 08:34:06;;;;;;;8.80;4.90;;;;;;;25.91;28.18;99241.55;105157;1268;60379;-76
2022/10/01 08:36:54;;;;;;;9.10;4.40;;;;;;;25.95;27.64;99245.30;105214;1267;73744;-74
2022/10/01 08:39:42;;;;;;;8.70;4.00;;;;;;;25.93;27.79;99239.60;105220;1267;69992;-76
2022/10/01 08:42:54;;;;;;;9.20;4.40;;;;;;;25.92;27.88;99235.20;105264;1267;73015;-75
2022/10/01 08:45:59;;;;;;;8.60;4.60;;;;;;;26.40;27.68;99231.11;105355;1267;59650;-75
2022/10/01 08:48:59;;;;;;;9.70;4.70;;;;;;;27.00;26.75;99227.27;105193;1267;61571;-75
2022/10/01 08:52:29;;;;;;;8.10;4.10;;;;;;;26.37;26.54;99227.77;105161;1267;73212;-76
2022/10/01 08:55:26;;;;;;;8.00;3.80;;;;;;;25.47;27.91;99221.27;105387;1268;66810;-76
2022/10/01 08:58:24;;;;;;;7.60;3.70;;;;;;;24.99;28.10;99216.08;105464;1267;72945;-73
2022/10/01 09:01:13;;;;;;;7.70;3.70;;;;;;;24.85;28.33;99216.54;105289;1267;59675;-73
2022/10/01 09:04:01;;;;;;;8.90;3.70;;;;;;;25.33;27.98;99205.67;105244;1267;61796;-73
2022/10/01 09:07:01;;;;;;;7.00;3.20;;;;;;;25.94;27.55;99204.98;105326;1267;72029;-73
2022/10/01 09:10:15;;;;;;;7.90;3.40;;;;;;;26.01;26.36;99197.47;105141;1267;68221;-75
2022/10/01 09:13:51;;;;;;;7.40;3.20;;;;;;;25.87;26.78;99187.89;105182;1267;74203;-75
2022/10/01 09:17:20;;;;;;;8.60;3.60;;;;;;;25.70;27.28;99180.46;105213;1267;59746;-75
2022/10/01 09:20:28;;;;;;;7.00;3.30;;;;;;;25.63;26.58;99179.34;105082;1274;60909;-75
2022/10/01 09:23:27;;;;;;;8.50;3.50;;;;;;;25.84;26.24;99180.86;104811;1274;71713;-75
2022/10/01 09:26:16;;;;;;;7.80;3.50;;;;;;;24.82;27.36;99176.85;104880;1273;69628;-75
2022/10/01 09:29:15;;;;;;;8.10;3.50;;;;;;;25.07;27.89;99166.77;104715;1275;74651;-74
2022/10/01 09:32:04;;;;;;;9.90;4.20;;;;;;;25.60;26.89;99170.50;105073;1274;59592;-72
2022/10/01 09:34:53;;;;;;;9.50;3.70;;;;;;;26.51;26.56;99165.23;104822;1274;61189;-73
2022/10/01 09:38:06;;;;;;;8.40;3.80;;;;;;;26.94;25.47;99159.71;104903;1274;74083;-75
2022/10/01 09:40:57;;;;;;;9.20;4.50;;;;;;;26.81;25.22;99157.80;104834;1274;67805;-76
2022/10/01 09:43:46;;;;;;;9.50;4.10;;;;;;;27.09;25.48;99146.23;104993;1274;72665;-74
2022/10/01 09:46:34;;;;;;;8.50;4.30;;;;;;;27.76;25.32;99141.14;104748;1275;60064;-74
2022/10/01 09:49:38;;;;;;;8.50;3.80;;;;;;;28.25;24.67;99144.83;105087;1274;60865;-74
2022/10/01 09:52:33;;;;;;;8.30;4.20;;;;;;;28.55;23.96;99140.29;105013;1274;72830;-76
2022/10/01 09:55:39;;;;;;;9.60;4.80;;;;;;;28.57;23.92;99140.38;104965;1274;66787;-75
2022/10/01 09:58:29;;;;;;;10.00;5.30;;;;;;;28.55;24.33;99132.34;105190;1270;74624;-77
2022/10/01 10:01:55;;;;;;;9.40;4.60;;;;;;;28.51;24.50;99131.72;105205;1267;59774;-77
2022/10/01 10:04:43;;;;;;;10.20;4.60;;;;;;;28.67;24.38;99131.16;104959;1276;61223;-75
2022/10/01 10:07:33;;;;;;;10.20;5.10;;;;;;;28.45;24.57;99124.33;104781;1276;72127;-75
2022/10/01 10:10:28;;;;;;;9.20;4.90;;;;;;;27.81;25.19;99128.70;104974;1276;66764;-75
2022/10/01 10:13:37;;;;;;;10.20;5.50;;;;;;;27.66;25.83;99124.63;104647;1276;70687;-76
2022/10/01 10:16:35;;;;;;;10.70;6.00;;;;;;;26.99;26.44;99117.96;104801;1276;59576;-75
2022/10/01 10:19:28;;;;;;;11.30;6.70;;;;;;;27.05;26.92;99114.77;104898;1276;59677;-75
2022/10/01 10:22:27;;;;;;;10.30;6.30;;;;;;;26.43;27.64;99110.89;104596;1276;72074;-75
2022/10/01 10:25:23;;;;;;;11.20;7.20;;;;;;;25.57;28.66;99111.36;104989;1276;66835;-75
2022/10/01 10:28:23;;;;;;;12.20;6.30;;;;;;;24.30;30.52;99109.64;104694;1276;74361;-74
2022/10/01 10:31:20;;;;;;;12.50;7.00;;;;;;;23.11;32.83;99108.94;104825;1276;59933;-75
2022/10/01 10:34:30;;;;;;;12.20;8.00;;;;;;;22.31;34.38;99107.40;104661;1276;60403;-77
2022/10/01 10:37:28;;;;;;;12.00;8.00;;;;;;;21.30;36.25;99106.48;104936;1276;71975;-75
2022/10/01 10:40:24;;;;;;;12.80;7.90;;;;;;;21.13;37.00;99101.78;105009;1276;67128;-74
2022/10/01 10:43:25;;;;;;;13.90;8.60;;;;;;;21.57;36.53;99095.04;105311;1267;74362;-74
2022/10/01 10:46:28;;;;;;;12.20;6.70;;;;;;;22.48;35.02;99086.77;105279;1267;59676;-75
2022/10/01 10:49:30;;;;;;;13.40;7.50;;;;;;;22.61;34.76;99084.80;105399;1267;60222;-76
2022/10/01 10:52:36;;;;;;;12.20;6.90;;;;;;;21.69;36.41;99079.18;105745;1267;73241;-75
2022/10/01 10:55:30;;;;;;;12.10;7.10;;;;;;;21.04;37.59;99069.67;105319;1267;69138;-76
2022/10/01 10:58:18;;;;;;;11.70;6.80;;;;;;;20.99;38.20;99065.48;105150;1268;74444;-73
2022/10/01 11:01:12;;;;;;;11.50;6.90;;;;;;;20.59;38.95;99066.85;105256;1267;59988;-74
2022/10/01 11:04:00;;;;;;;14.20;7.90;;;;;;;20.07;39.89;99061.83;105208;1268;59929;-73
2022/10/01 11:06:59;;;;;;;14.70;7.30;;;;;;;19.98;40.70;99052.77;105249;1267;73779;-74
2022/10/01 11:10:12;;;;;;;11.80;6.80;;;;;;;20.08;41.00;99046.30;105356;1267;67837;-74
2022/10/01 11:13:25;;;;;;;13.60;8.00;;;;;;;20.17;41.08;99042.41;105300;1267;72131;-73
2022/10/01 11:16:34;;;;;;;13.20;7.80;;;;;;;20.78;40.20;99038.18;105241;1267;60158;-76
2022/10/01 11:19:50;;;;;;;12.70;7.40;;;;;;;21.28;38.53;99026.06;105469;1267;60412;-74
2022/10/01 11:23:19;;;;;;;13.10;6.10;;;;;;;21.65;38.41;99022.95;105277;1267;73207;-75
2022/10/01 11:26:16;;;;;;;11.30;6.50;;;;;;;22.28;37.49;99016.95;104839;1274;69658;-74
2022/10/01 11:29:49;;;;;;;12.90;5.90;;;;;;;22.18;37.18;99013.06;104867;1274;73360;-73
2022/10/01 11:33:24;;;;;;;10.00;5.60;;;;;;;21.99;37.56;99007.16;105056;1274;59752;-76
2022/10/01 11:36:18;;;;;;;9.80;5.20;;;;;;;21.47;38.15;99002.59;104752;1279;59681;-73
2022/10/01 11:39:18;;;;;;;10.50;6.20;;;;;;;20.68;39.47;98997.95;104368;1279;74121;-73
2022/10/01 11:42:23;;;;;;;11.60;6.40;;;;;;;20.02;41.20;98994.93;104520;1279;67366;-73
2022/10/01 11:45:23;;;;;;;12.50;6.50;;;;;;;19.49;42.67;98997.19;104655;1279;73923;-73
2022/10/01 11:48:46;;;;;;;12.60;7.40;;;;;;;19.08;43.75;98996.92;104361;1279;59929;-72
2022/10/01 11:51:47;;;;;;;11.70;6.50;;;;;;;18.91;44.33;99001.97;104824;1279;59659;-73
2022/10/01 11:54:52;;;;;;;11.90;6.90;;;;;;;18.76;45.03;98994.65;104478;1279;75064;-73
2022/10/01 12:01:41;;;;;;;12.90;7.30;;;;;;;18.55;45.04;98993.95;104189;1279;71826;-73
2022/10/01 12:04:40;;;;;;;13.50;7.00;;;;;;;18.33;45.69;98993.86;104216;1282;59884;-73
2022/10/01 12:07:38;;;;;;;12.50;6.60;;;;;;;18.41;45.68;98988.19;104010;1282;60265;-74
2022/10/01 12:10:43;;;;;;;12.30;7.20;;;;;;;18.40;46.22;98991.39;104401;1276;73551;-72
2022/10/01 12:13:41;;;;;;;14.00;7.30;;;;;;;18.07;46.97;98984.97;104879;1278;67340;-73
2022/10/01 12:16:43;;;;;;;14.00;7.50;;;;;;;17.83;47.50;98979.88;105000;1276;73939;-74
2022/10/01 12:19:40;;;;;;;13.90;7.70;;;;;;;17.65;48.46;98976.23;104733;1276;59926;-73
2022/10/01 12:22:40;;;;;;;13.30;7.60;;;;;;;17.52;48.93;98974.50;104785;1274;62288;-73
2022/10/01 12:25:45;;;;;;;13.20;7.50;;;;;;;17.52;49.23;98968.11;104782;1274;73267;-72
2022/10/01 12:29:03;;;;;;;12.50;7.20;;;;;;;17.47;49.48;98962.04;104676;1278;68488;-74
2022/10/01 12:31:59;;;;;;;16.30;7.70;;;;;;;17.44;49.87;98959.77;104846;1276;72634;-74
2022/10/01 12:35:11;;;;;;;12.70;6.50;;;;;;;17.40;49.79;98952.48;104809;1276;59646;-73
2022/10/01 12:38:18;;;;;;;13.10;6.60;;;;;;;17.20;49.73;98946.42;105081;1276;59588;-74
2022/10/01 12:41:28;;;;;;;13.00;7.00;;;;;;;17.02;50.77;98946.30;105099;1268;72978;-74
2022/10/01 12:44:48;;;;;;;13.90;8.00;;;;;;;17.01;51.27;98943.98;105409;1268;69568;-74
2022/10/01 12:48:15;;;;;;;12.70;7.10;;;;;;;16.88;51.73;98941.15;105171;1267;74455;-74
2022/10/01 12:51:51;;;;;;;12.40;6.80;;;;;;;16.74;52.57;98940.16;105566;1267;59714;-74
2022/10/01 12:54:56;;;;;;;12.20;6.20;;;;;;;16.60;52.87;98937.92;104634;1267;1002689;-73
2022/10/01 12:58:20;;;;;;;11.90;6.30;;;;;;;16.44;53.10;98931.95;105482;1267;74995;-73
2022/10/01 13:01:24;;;;;;;11.80;6.00;;;;;;;16.28;53.34;98930.79;105346;1267;68528;-75
2022/10/01 13:04:39;;;;;;;10.20;5.80;;;;;;;16.10;53.49;98930.45;105466;1267;72959;-73
2022/10/01 13:08:17;;;;;;;13.80;6.90;;;;;;;15.89;53.89;98929.86;105265;1267;59714;-74
2022/10/01 13:11:41;;;;;;;11.80;5.80;;;;;;;15.65;54.00;98925.33;105215;1270;60493;-73
2022/10/01 13:14:32;;;;;;;12.70;6.40;;;;;;;15.57;55.17;98919.13;105035;1270;73204;-75
2022/10/01 13:17:53;;;;;;;14.60;6.80;;;;;;;15.56;56.91;98917.09;105258;1270;67409;-73
2022/10/01 13:21:15;;;;;;;14.70;6.80;;;;;;;15.53;58.05;98915.14;105194;1270;74215;-74
2022/10/01 13:24:31;;;;;;;11.80;6.50;;;;;;;15.52;58.95;98911.04;105592;1269;60152;-74
2022/10/01 13:27:34;;;;;;;12.00;5.80;;;;;;;15.54;59.00;98906.25;105503;1267;59642;-73
2022/10/01 13:30:26;;;;;;;13.80;5.90;;;;;;;15.54;59.20;98905.42;105481;1267;73258;-73
2022/10/01 13:33:27;;;;;;;10.10;5.80;;;;;;;15.54;59.36;98899.73;105349;1267;67755;-74
2022/10/01 13:36:28;;;;;;;11.90;6.00;;;;;;;15.55;59.50;98897.73;105215;1267;72837;-72